Terminal Aerodrome Forecast
Issued by NWS

Home | Current Version | Previous Version | Graphics & Text | Print | Product List | Glossary On
Versions: 1 2 3 4 5 6 7 8 9 10 11 12 13 14 15 16 17 18 19 20 21 22 23 24 25 26 27 28 29 30 31 32 33 34 35 36 37 38 39 40 41 42 43 44 45 46 47 48 49
863
FTUS43 KLOT 222329
TAFGYY
TAF
KGYY 222329Z 2300/2324 23015G23KT P6SM BKN060 BKN100
      TEMPO 2301/2304 5SM -SHRA
     FM230400 22010KT P6SM VCSH SCT025 BKN040
     FM230800 22007KT P6SM BKN020 OVC040
     FM231500 19008KT 6SM -SHRA BKN025 OVC040
     FM232300 11007KT P6SM VCSH BKN035 OVC050=

USA.gov is the U.S. government's official web portal to all federal, state and local government web resources and services.